In Rescue
 
Open Full Screen Window  High Contrast Mode
Wind Gusting 00 knots
10
July 22, 2019 5:30 PM EDT
Weather Information
Wind Direction
  340 °
Wind Speed
  10 kt (12 mph)
Wind Gust
  00 kt (0 mph)
Altimeter
29.99 in
Visibility
10 SM
Temperature
26° C
79° F
Dewpoint
05° C
41° F
Humidity
26%
Sky Condition
Scattered @ 6,500 ft
VFR

METAR KAMN 222130Z AUTO 34010KT 10SM SCT065 26/05 A2999 RMK AO2 T02570051

FAA Disclaimer: The data displayed is for advisory purposes only and is not to be used for flight planning or operations.